Time;durP1;ratioP1;P1;durP2;ratioP2;P2;SDS_P1;SDS_P2;PMS_P1;PMS_P2;Temp;Humidity;BMP_temperature;BMP_pressure;BME280_temperature;BME280_humidity;BME280_pressure;Samples;Min_cycle;Max_cycle;Signal;HPM_P1;HPM_P2
2021/01/09 00:00:43;;;;;;;26.92;18.65;;;;;;;;;;5037160;28;20218;-82
2021/01/09 00:03:09;;;;;;;28.27;19.58;;;;;;;;;;5032332;28;20182;-82
2021/01/09 00:05:35;;;;;;;26.65;20.20;;;;;;;;;;5016674;28;20194;-82
2021/01/09 00:08:01;;;;;;;24.40;19.13;;;;;;;;;;5024359;28;20186;-82
2021/01/09 00:10:27;;;;;;;26.05;18.98;;;;;;;;;;5035686;28;20232;-82
2021/01/09 00:12:53;;;;;;;25.90;19.27;;;;;;;;;;5018684;28;20193;-82
2021/01/09 00:15:19;;;;;;;25.73;18.63;;;;;;;;;;5018980;28;20191;-82
2021/01/09 00:17:45;;;;;;;23.92;18.33;;;;;;;;;;5018946;28;20178;-82
2021/01/09 00:20:12;;;;;;;28.45;19.20;;;;;;;;;;5033440;28;20244;-82
2021/01/09 00:22:38;;;;;;;24.88;19.25;;;;;;;;;;5020339;28;20182;-82
2021/01/09 00:25:08;;;;;;;27.63;19.25;;;;;;;;;;5017695;28;20234;-82
2021/01/09 00:27:34;;;;;;;25.40;19.45;;;;;;;;;;5032220;28;20191;-82
2021/01/09 00:30:00;;;;;;;30.55;21.45;;;;;;;;;;5038243;28;20386;-82
2021/01/09 00:32:27;;;;;;;25.75;19.60;;;;;;;;;;5035125;28;20229;-82
2021/01/09 00:34:53;;;;;;;26.00;19.48;;;;;;;;;;5019015;28;20191;-81
2021/01/09 00:37:19;;;;;;;25.13;19.30;;;;;;;;;;5020317;28;20182;-82
2021/01/09 00:39:48;;;;;;;29.00;20.20;;;;;;;;;;5020990;28;20186;-82
2021/01/09 00:42:14;;;;;;;27.02;20.20;;;;;;;;;;5016751;28;20190;-82
2021/01/09 00:44:40;;;;;;;27.20;20.73;;;;;;;;;;5019007;28;20331;-81
2021/01/09 00:47:06;;;;;;;25.65;19.25;;;;;;;;;;5016668;28;20183;-82
2021/01/09 00:49:32;;;;;;;23.02;19.67;;;;;;;;;;5023950;28;20193;-82
2021/01/09 00:51:58;;;;;;;27.08;20.20;;;;;;;;;;5019163;28;20238;-82
2021/01/09 00:54:24;;;;;;;28.73;20.10;;;;;;;;;;5034156;28;20207;-82
2021/01/09 00:56:53;;;;;;;26.02;19.92;;;;;;;;;;5024329;28;20246;-82
2021/01/09 00:59:20;;;;;;;25.98;20.17;;;;;;;;;;5032566;28;20179;-83
2021/01/09 01:01:45;;;;;;;24.00;19.23;;;;;;;;;;5020477;28;20186;-82
2021/01/09 01:04:11;;;;;;;32.90;20.80;;;;;;;;;;5017309;28;20625;-82
2021/01/09 01:06:37;;;;;;;30.35;20.85;;;;;;;;;;5018411;28;20286;-82
2021/01/09 01:09:03;;;;;;;30.00;20.15;;;;;;;;;;5037141;28;20203;-83
2021/01/09 01:11:30;;;;;;;30.38;20.17;;;;;;;;;;5033451;28;20178;-82
2021/01/09 01:13:57;;;;;;;26.38;19.90;;;;;;;;;;5019805;28;20183;-82
2021/01/09 01:16:23;;;;;;;30.60;20.05;;;;;;;;;;5019402;28;20217;-83
2021/01/09 01:18:49;;;;;;;26.63;19.52;;;;;;;;;;5018432;28;20269;-82
2021/01/09 01:21:15;;;;;;;23.83;18.70;;;;;;;;;;5032326;28;20191;-82
2021/01/09 01:23:41;;;;;;;27.58;20.45;;;;;;;;;;5026106;28;20178;-82
2021/01/09 01:26:10;;;;;;;24.02;19.55;;;;;;;;;;5017004;28;20652;-83
2021/01/09 01:28:37;;;;;;;28.90;20.73;;;;;;;;;;5018770;28;20182;-82
2021/01/09 01:31:03;;;;;;;27.27;19.15;;;;;;;;;;5016700;28;20179;-82
2021/01/09 01:33:29;;;;;;;25.75;19.75;;;;;;;;;;5019747;28;20186;-82
2021/01/09 01:35:55;;;;;;;28.80;20.45;;;;;;;;;;5023383;28;20179;-82
2021/01/09 01:38:22;;;;;;;28.30;20.63;;;;;;;;;;5036971;28;20194;-81
2021/01/09 01:40:48;;;;;;;21.75;19.38;;;;;;;;;;5017936;28;20218;-82
2021/01/09 01:43:14;;;;;;;27.35;18.25;;;;;;;;;;5024215;28;20187;-82
2021/01/09 01:45:41;;;;;;;27.23;20.23;;;;;;;;;;5031797;28;20667;-81
2021/01/09 01:48:07;;;;;;;27.17;20.35;;;;;;;;;;5030279;28;20189;-82
2021/01/09 01:50:34;;;;;;;23.95;17.98;;;;;;;;;;5034143;28;20238;-81
2021/01/09 01:53:00;;;;;;;26.27;19.00;;;;;;;;;;5014983;28;20206;-81
2021/01/09 01:55:26;;;;;;;25.05;19.90;;;;;;;;;;5015124;28;20187;-81
2021/01/09 01:57:52;;;;;;;27.95;19.88;;;;;;;;;;5016673;28;20182;-81
2021/01/09 02:00:24;;;;;;;25.15;19.00;;;;;;;;;;5016743;28;20231;-81
2021/01/09 02:02:50;;;;;;;28.75;20.15;;;;;;;;;;5016810;28;20174;-81
2021/01/09 02:05:16;;;;;;;25.80;19.45;;;;;;;;;;5028296;28;20186;-81
2021/01/09 02:07:43;;;;;;;23.70;18.15;;;;;;;;;;5014150;28;20213;-81
2021/01/09 02:10:09;;;;;;;24.35;19.15;;;;;;;;;;5018955;28;20178;-81
2021/01/09 02:12:38;;;;;;;27.42;18.58;;;;;;;;;;5016254;28;20266;-81
2021/01/09 02:15:04;;;;;;;26.48;18.83;;;;;;;;;;5021053;28;20217;-81
2021/01/09 02:17:31;;;;;;;23.75;18.95;;;;;;;;;;5015872;28;20194;-81
2021/01/09 02:19:58;;;;;;;23.35;18.73;;;;;;;;;;5018534;28;20186;-81
2021/01/09 02:22:24;;;;;;;26.42;18.85;;;;;;;;;;5019267;28;20209;-81
2021/01/09 02:24:50;;;;;;;21.85;18.00;;;;;;;;;;5025596;28;20182;-81
2021/01/09 02:27:16;;;;;;;28.15;19.10;;;;;;;;;;5030527;28;20237;-80
2021/01/09 02:29:42;;;;;;;27.20;19.73;;;;;;;;;;5024447;28;20273;-80
2021/01/09 02:32:10;;;;;;;22.65;18.85;;;;;;;;;;5031412;28;20189;-80
2021/01/09 02:34:42;;;;;;;19.95;17.50;;;;;;;;;;5016235;28;20187;-81
2021/01/09 02:37:08;;;;;;;24.10;18.42;;;;;;;;;;5017006;28;20178;-81
2021/01/09 02:39:35;;;;;;;24.63;19.27;;;;;;;;;;5018285;28;20229;-81
2021/01/09 02:42:01;;;;;;;29.17;19.10;;;;;;;;;;5019843;28;20195;-81
2021/01/09 02:44:27;;;;;;;25.58;19.92;;;;;;;;;;5033210;28;20187;-81
2021/01/09 02:46:52;;;;;;;26.00;19.02;;;;;;;;;;5014118;28;20198;-80
2021/01/09 02:49:18;;;;;;;24.63;16.92;;;;;;;;;;5026327;28;20561;-80
2021/01/09 02:51:44;;;;;;;30.45;20.90;;;;;;;;;;5019068;28;20178;-80
2021/01/09 02:54:10;;;;;;;26.85;19.85;;;;;;;;;;5030501;28;20182;-80
2021/01/09 02:56:36;;;;;;;22.67;17.77;;;;;;;;;;5018245;28;20179;-81
2021/01/09 02:59:02;;;;;;;25.00;18.58;;;;;;;;;;5029049;28;20206;-81
2021/01/09 03:01:29;;;;;;;24.70;18.65;;;;;;;;;;5014515;28;20302;-80
2021/01/09 03:03:55;;;;;;;23.58;18.60;;;;;;;;;;5016381;28;20186;-81
2021/01/09 03:06:21;;;;;;;25.50;18.45;;;;;;;;;;5031220;28;20211;-80
2021/01/09 03:08:47;;;;;;;20.50;17.40;;;;;;;;;;5022307;28;20190;-81
2021/01/09 03:11:13;;;;;;;24.20;18.08;;;;;;;;;;5016194;28;20190;-81
2021/01/09 03:13:39;;;;;;;25.85;19.80;;;;;;;;;;5032945;28;20250;-81
2021/01/09 03:16:05;;;;;;;23.48;17.23;;;;;;;;;;5024105;28;20190;-81
2021/01/09 03:18:31;;;;;;;25.17;18.17;;;;;;;;;;5022790;28;20253;-81
2021/01/09 03:20:57;;;;;;;23.35;17.95;;;;;;;;;;5024393;28;20913;-81
2021/01/09 03:23:23;;;;;;;26.65;20.30;;;;;;;;;;5033599;28;20270;-80
2021/01/09 03:25:49;;;;;;;26.08;18.55;;;;;;;;;;5024048;28;20713;-81
2021/01/09 03:28:15;;;;;;;24.15;18.58;;;;;;;;;;5021028;28;20190;-81
2021/01/09 03:30:41;;;;;;;21.85;18.17;;;;;;;;;;5037617;28;20218;-79
2021/01/09 03:33:07;;;;;;;22.05;17.98;;;;;;;;;;5019821;28;20202;-81
2021/01/09 03:35:33;;;;;;;26.77;19.30;;;;;;;;;;5037066;28;20175;-80
2021/01/09 03:37:59;;;;;;;25.25;19.17;;;;;;;;;;5017197;28;20186;-81
2021/01/09 03:40:24;;;;;;;20.15;17.85;;;;;;;;;;5017529;28;20266;-80
2021/01/09 03:42:50;;;;;;;23.88;18.38;;;;;;;;;;5029616;28;20206;-81
2021/01/09 03:45:16;;;;;;;27.98;20.08;;;;;;;;;;5033882;28;20207;-81
2021/01/09 03:47:42;;;;;;;27.35;18.85;;;;;;;;;;5024227;28;20175;-80
2021/01/09 03:50:09;;;;;;;22.10;18.05;;;;;;;;;;5019003;28;20170;-80
2021/01/09 03:52:35;;;;;;;22.50;16.70;;;;;;;;;;5032423;28;20259;-80
2021/01/09 03:55:01;;;;;;;24.00;17.33;;;;;;;;;;5019859;28;20191;-81
2021/01/09 03:57:27;;;;;;;25.08;17.85;;;;;;;;;;5019846;28;20239;-81
2021/01/09 03:59:53;;;;;;;21.05;16.60;;;;;;;;;;5018286;28;20704;-80
2021/01/09 04:02:18;;;;;;;24.17;17.92;;;;;;;;;;5023731;28;20183;-80
2021/01/09 04:04:44;;;;;;;23.05;16.73;;;;;;;;;;5021058;28;20183;-81
2021/01/09 04:07:10;;;;;;;22.55;17.25;;;;;;;;;;5018290;28;20194;-80
2021/01/09 04:09:36;;;;;;;22.35;16.10;;;;;;;;;;5032511;28;20267;-80
2021/01/09 04:12:02;;;;;;;21.85;16.92;;;;;;;;;;5022000;28;20191;-81
2021/01/09 04:14:28;;;;;;;24.00;17.95;;;;;;;;;;5020323;28;20258;-81
2021/01/09 04:16:54;;;;;;;25.83;18.08;;;;;;;;;;5016840;28;20210;-81
2021/01/09 04:19:20;;;;;;;27.75;19.10;;;;;;;;;;5021928;28;20656;-81
2021/01/09 04:21:47;;;;;;;19.30;16.98;;;;;;;;;;5020856;28;20210;-81
2021/01/09 04:24:13;;;;;;;24.02;17.45;;;;;;;;;;5017087;28;20273;-80
2021/01/09 04:26:40;;;;;;;21.77;17.35;;;;;;;;;;5027449;28;20198;-80
2021/01/09 04:29:06;;;;;;;21.95;17.63;;;;;;;;;;5031774;28;20185;-81
2021/01/09 04:31:32;;;;;;;23.73;17.90;;;;;;;;;;5015896;28;20191;-81
2021/01/09 04:33:58;;;;;;;20.35;16.65;;;;;;;;;;5019035;28;20220;-81
2021/01/09 04:36:24;;;;;;;21.58;16.70;;;;;;;;;;5033974;28;20202;-81
2021/01/09 04:38:50;;;;;;;20.02;16.15;;;;;;;;;;5018376;28;20258;-81
2021/01/09 04:41:20;;;;;;;20.27;16.80;;;;;;;;;;5032798;28;20202;-81
2021/01/09 04:43:47;;;;;;;23.52;17.50;;;;;;;;;;5020474;28;20259;-81
2021/01/09 04:46:14;;;;;;;19.85;17.17;;;;;;;;;;5017263;28;20226;-81
2021/01/09 04:48:40;;;;;;;22.80;17.80;;;;;;;;;;5032479;28;20194;-81
2021/01/09 04:51:06;;;;;;;20.23;16.38;;;;;;;;;;5016249;28;20174;-81
2021/01/09 04:53:32;;;;;;;21.38;17.73;;;;;;;;;;5034880;28;20179;-80
2021/01/09 04:55:59;;;;;;;21.88;17.77;;;;;;;;;;5016270;28;20200;-81
2021/01/09 04:58:25;;;;;;;23.77;16.50;;;;;;;;;;5019491;28;20187;-81
2021/01/09 05:00:54;;;;;;;21.42;16.85;;;;;;;;;;5034833;28;20240;-81
2021/01/09 05:03:24;;;;;;;20.13;16.13;;;;;;;;;;5033702;28;20185;-81
2021/01/09 05:05:50;;;;;;;22.02;17.00;;;;;;;;;;5018392;28;20256;-81
2021/01/09 05:08:16;;;;;;;20.20;16.38;;;;;;;;;;5017132;28;20555;-80
2021/01/09 05:10:43;;;;;;;20.48;15.70;;;;;;;;;;5015061;28;20186;-80
2021/01/09 05:13:09;;;;;;;23.60;18.17;;;;;;;;;;5018738;28;20190;-81
2021/01/09 05:15:39;;;;;;;25.92;16.15;;;;;;;;;;5036820;28;20206;-81
2021/01/09 05:18:05;;;;;;;25.48;16.75;;;;;;;;;;5020160;28;20206;-81
2021/01/09 05:20:32;;;;;;;23.73;16.92;;;;;;;;;;5033621;28;20313;-80
2021/01/09 05:22:59;;;;;;;22.63;17.15;;;;;;;;;;5032807;28;20240;-81
2021/01/09 05:25:26;;;;;;;23.73;18.88;;;;;;;;;;5021478;28;20297;-80
2021/01/09 05:27:53;;;;;;;25.45;20.13;;;;;;;;;;5035614;28;20629;-81
2021/01/09 05:30:20;;;;;;;24.90;17.08;;;;;;;;;;5016933;28;20194;-81
2021/01/09 05:32:46;;;;;;;25.02;18.50;;;;;;;;;;5023815;28;20179;-81
2021/01/09 05:35:13;;;;;;;22.92;16.83;;;;;;;;;;5031569;28;20178;-81
2021/01/09 05:37:39;;;;;;;26.17;19.65;;;;;;;;;;5019079;28;20178;-81
2021/01/09 05:40:06;;;;;;;27.38;18.15;;;;;;;;;;5018590;28;20182;-81
2021/01/09 05:42:34;;;;;;;29.70;18.02;;;;;;;;;;5024426;28;20222;-81
2021/01/09 05:45:00;;;;;;;19.10;16.92;;;;;;;;;;5016044;28;20209;-80
2021/01/09 05:47:27;;;;;;;25.60;19.02;;;;;;;;;;5033588;28;20197;-81
2021/01/09 05:49:54;;;;;;;21.67;16.58;;;;;;;;;;5019409;28;20186;-81
2021/01/09 05:52:22;;;;;;;22.23;17.50;;;;;;;;;;5019868;28;20232;-81
2021/01/09 05:54:48;;;;;;;23.60;15.90;;;;;;;;;;5019104;28;20183;-81
2021/01/09 05:57:16;;;;;;;21.00;17.40;;;;;;;;;;5016297;28;20193;-80
2021/01/09 05:59:43;;;;;;;18.45;15.93;;;;;;;;;;5021198;28;20274;-80
2021/01/09 06:02:09;;;;;;;22.77;16.35;;;;;;;;;;5031051;28;20209;-81
2021/01/09 06:04:39;;;;;;;24.58;17.92;;;;;;;;;;5015726;28;20437;-81
2021/01/09 06:07:06;;;;;;;23.17;17.42;;;;;;;;;;5019140;28;20358;-81
2021/01/09 06:09:35;;;;;;;24.95;18.45;;;;;;;;;;5019741;28;20188;-81
2021/01/09 06:12:05;;;;;;;19.60;16.80;;;;;;;;;;5020183;28;20191;-81
2021/01/09 06:14:32;;;;;;;22.02;17.33;;;;;;;;;;5033742;28;20237;-81
2021/01/09 06:16:59;;;;;;;26.05;16.25;;;;;;;;;;5018754;28;20194;-80
2021/01/09 06:19:25;;;;;;;23.88;17.27;;;;;;;;;;5018204;28;20193;-81
2021/01/09 06:21:55;;;;;;;22.45;17.90;;;;;;;;;;5020228;28;20182;-81
2021/01/09 06:24:21;;;;;;;25.52;18.05;;;;;;;;;;5015973;28;20182;-81
2021/01/09 06:26:47;;;;;;;22.77;16.77;;;;;;;;;;5016482;28;20202;-82
2021/01/09 06:29:20;;;;;;;19.52;15.77;;;;;;;;;;5024595;28;20198;-82
2021/01/09 06:31:51;;;;;;;21.60;16.80;;;;;;;;;;5015787;28;20181;-81
2021/01/09 06:34:19;;;;;;;27.40;18.27;;;;;;;;;;5015318;28;20187;-82
2021/01/09 06:36:47;;;;;;;20.27;16.52;;;;;;;;;;5032566;28;20211;-82
2021/01/09 06:39:13;;;;;;;20.77;16.10;;;;;;;;;;5034656;28;20290;-82
2021/01/09 06:41:39;;;;;;;20.00;16.50;;;;;;;;;;5017182;28;20182;-82
2021/01/09 06:44:07;;;;;;;21.90;15.65;;;;;;;;;;5030318;28;20233;-80
2021/01/09 06:46:34;;;;;;;25.70;17.83;;;;;;;;;;5025534;28;20217;-82
2021/01/09 06:49:00;;;;;;;27.65;19.10;;;;;;;;;;5035601;28;20186;-83
2021/01/09 06:51:35;;;;;;;29.13;18.40;;;;;;;;;;5038343;28;20225;-82
2021/01/09 06:54:16;;;;;;;31.30;18.60;;;;;;;;;;5025494;28;20221;-81
2021/01/09 06:56:43;;;;;;;31.90;19.52;;;;;;;;;;5022909;28;20193;-82
2021/01/09 06:59:09;;;;;;;31.60;18.73;;;;;;;;;;5034125;28;20269;-80
2021/01/09 07:01:38;;;;;;;28.10;18.52;;;;;;;;;;5022648;28;20193;-80
2021/01/09 07:04:05;;;;;;;30.42;18.88;;;;;;;;;;5020378;28;20190;-80
2021/01/09 07:06:50;;;;;;;28.67;19.25;;;;;;;;;;5037108;28;20275;-82
2021/01/09 07:09:16;;;;;;;29.65;18.70;;;;;;;;;;5017830;28;20187;-82
2021/01/09 07:11:45;;;;;;;31.85;19.60;;;;;;;;;;5027614;28;20228;-81
2021/01/09 07:14:15;;;;;;;30.60;20.02;;;;;;;;;;5040268;28;20182;-81
2021/01/09 07:16:42;;;;;;;33.47;19.73;;;;;;;;;;5018087;28;20194;-81
2021/01/09 07:19:09;;;;;;;32.58;20.48;;;;;;;;;;5019267;28;20199;-81
2021/01/09 07:21:37;;;;;;;31.65;19.35;;;;;;;;;;5035233;28;20187;-80
2021/01/09 07:24:05;;;;;;;26.48;17.13;;;;;;;;;;5024243;28;20242;-81
2021/01/09 07:26:32;;;;;;;31.75;18.85;;;;;;;;;;5035499;28;20236;-80
2021/01/09 07:29:02;;;;;;;33.45;18.95;;;;;;;;;;5017610;28;20248;-81
2021/01/09 07:31:31;;;;;;;35.88;19.20;;;;;;;;;;5020812;28;20183;-82
2021/01/09 07:33:58;;;;;;;32.22;21.13;;;;;;;;;;5019615;28;20182;-84
2021/01/09 07:36:28;;;;;;;28.10;18.05;;;;;;;;;;5035222;28;20266;-82
2021/01/09 07:39:01;;;;;;;33.35;20.02;;;;;;;;;;5024726;28;20182;-82
2021/01/09 07:41:31;;;;;;;27.02;17.17;;;;;;;;;;5034510;28;20183;-83
2021/01/09 07:44:18;;;;;;;33.67;18.27;;;;;;;;;;5021902;28;20209;-83
2021/01/09 07:46:50;;;;;;;31.17;19.75;;;;;;;;;;5022193;28;20294;-84
2021/01/09 07:49:24;;;;;;;31.98;20.80;;;;;;;;;;5020390;28;20547;-81
2021/01/09 07:51:51;;;;;;;36.17;23.92;;;;;;;;;;5018725;28;20182;-82
2021/01/09 07:54:30;;;;;;;26.88;18.35;;;;;;;;;;5023460;28;20242;-84
2021/01/09 07:56:56;;;;;;;30.10;20.27;;;;;;;;;;5022704;28;20334;-83
2021/01/09 07:59:22;;;;;;;31.20;18.75;;;;;;;;;;5033939;28;20195;-83
2021/01/09 08:01:48;;;;;;;35.67;21.42;;;;;;;;;;5020810;28;20258;-80
2021/01/09 08:04:14;;;;;;;28.83;17.90;;;;;;;;;;5023978;28;20218;-83
2021/01/09 08:06:40;;;;;;;35.58;21.92;;;;;;;;;;5036711;28;20206;-84
2021/01/09 08:09:07;;;;;;;28.17;19.40;;;;;;;;;;5031355;28;20187;-83
2021/01/09 08:11:40;;;;;;;28.75;19.25;;;;;;;;;;5037738;28;20206;-84
2021/01/09 08:14:06;;;;;;;34.30;21.83;;;;;;;;;;5038682;28;20167;-84
2021/01/09 08:16:32;;;;;;;33.60;21.05;;;;;;;;;;5030063;28;20197;-85
2021/01/09 08:19:18;;;;;;;35.50;20.85;;;;;;;;;;5028501;28;20193;-84
2021/01/09 08:21:52;;;;;;;33.08;20.85;;;;;;;;;;5029137;28;20201;-84
2021/01/09 08:24:24;;;;;;;35.03;20.65;;;;;;;;;;5022641;28;20178;-84
2021/01/09 08:26:51;;;;;;;29.70;19.30;;;;;;;;;;5038253;28;20226;-83
2021/01/09 08:29:17;;;;;;;31.63;19.45;;;;;;;;;;5039943;28;20182;-82
2021/01/09 08:31:43;;;;;;;31.25;19.17;;;;;;;;;;5027949;28;20213;-83
2021/01/09 08:34:11;;;;;;;28.77;18.60;;;;;;;;;;5023662;28;20189;-81
2021/01/09 08:36:41;;;;;;;34.42;19.33;;;;;;;;;;5019561;28;20186;-82
2021/01/09 08:39:07;;;;;;;26.48;19.00;;;;;;;;;;5013828;28;20191;-81
2021/01/09 08:41:46;;;;;;;26.73;18.75;;;;;;;;;;5038881;28;20273;-81
2021/01/09 08:44:13;;;;;;;30.33;17.65;;;;;;;;;;5022471;28;20783;-81
2021/01/09 08:46:40;;;;;;;28.05;18.58;;;;;;;;;;5018737;28;20209;-81
2021/01/09 08:49:07;;;;;;;28.15;18.17;;;;;;;;;;5024704;28;20174;-82
2021/01/09 08:51:34;;;;;;;34.80;19.63;;;;;;;;;;5035644;28;20246;-83
2021/01/09 08:54:06;;;;;;;29.77;18.58;;;;;;;;;;5016713;28;20194;-82
2021/01/09 08:56:33;;;;;;;29.48;17.33;;;;;;;;;;5039407;28;20526;-82
2021/01/09 08:59:18;;;;;;;29.20;17.50;;;;;;;;;;5026312;28;20207;-80
2021/01/09 09:01:48;;;;;;;33.15;20.15;;;;;;;;;;5018710;28;20198;-83
2021/01/09 09:04:16;;;;;;;29.67;18.35;;;;;;;;;;5021597;28;20185;-80
2021/01/09 09:06:43;;;;;;;33.70;19.75;;;;;;;;;;5020826;28;20206;-79
2021/01/09 09:09:09;;;;;;;29.00;17.92;;;;;;;;;;5031959;28;20193;-81
2021/01/09 09:11:35;;;;;;;37.17;19.35;;;;;;;;;;5019639;28;20182;-80
2021/01/09 09:14:04;;;;;;;30.50;18.27;;;;;;;;;;5019996;28;20182;-80
2021/01/09 09:16:31;;;;;;;26.52;17.30;;;;;;;;;;5033906;28;20197;-81
2021/01/09 09:18:57;;;;;;;28.98;18.63;;;;;;;;;;5018478;28;20186;-81
2021/01/09 09:21:24;;;;;;;31.77;18.33;;;;;;;;;;5033924;28;20194;-82
2021/01/09 09:23:54;;;;;;;27.65;18.45;;;;;;;;;;5026605;28;20182;-81
2021/01/09 09:26:20;;;;;;;24.52;15.80;;;;;;;;;;5037681;28;20217;-81
2021/01/09 09:28:46;;;;;;;28.75;18.88;;;;;;;;;;5019752;28;20190;-82
2021/01/09 09:31:19;;;;;;;28.65;18.73;;;;;;;;;;5031026;28;20197;-80
2021/01/09 09:33:58;;;;;;;29.40;19.10;;;;;;;;;;5032708;28;20183;-79
2021/01/09 09:36:24;;;;;;;32.35;20.60;;;;;;;;;;5035954;28;20211;-81
2021/01/09 09:38:50;;;;;;;26.92;17.90;;;;;;;;;;5024089;28;20208;-79
2021/01/09 09:41:16;;;;;;;32.10;18.88;;;;;;;;;;5031641;28;20178;-79
2021/01/09 09:43:52;;;;;;;26.27;17.98;;;;;;;;;;5021622;28;20189;-79
2021/01/09 09:46:18;;;;;;;31.55;19.30;;;;;;;;;;5015681;28;20199;-81
2021/01/09 09:48:44;;;;;;;29.90;19.13;;;;;;;;;;5032406;28;20191;-79
2021/01/09 09:51:11;;;;;;;28.10;17.67;;;;;;;;;;5035476;28;20504;-79
2021/01/09 09:53:39;;;;;;;27.33;18.38;;;;;;;;;;5027515;28;20424;-79
2021/01/09 09:56:18;;;;;;;30.35;17.75;;;;;;;;;;5015686;28;20175;-79
2021/01/09 09:58:45;;;;;;;29.48;17.20;;;;;;;;;;5014529;28;20205;-79
2021/01/09 10:01:21;;;;;;;29.52;20.25;;;;;;;;;;5016003;28;20623;-79
2021/01/09 10:03:48;;;;;;;27.10;18.60;;;;;;;;;;5024546;28;20186;-78
2021/01/09 10:06:14;;;;;;;26.30;17.60;;;;;;;;;;5031625;28;20210;-79
2021/01/09 10:08:40;;;;;;;28.95;18.00;;;;;;;;;;5025655;28;20170;-79
2021/01/09 10:11:06;;;;;;;25.40;19.77;;;;;;;;;;5030404;28;20186;-79
2021/01/09 10:13:32;;;;;;;33.33;20.55;;;;;;;;;;5018448;28;20198;-78
2021/01/09 10:15:59;;;;;;;26.98;17.20;;;;;;;;;;5017611;28;20190;-79
2021/01/09 10:18:25;;;;;;;34.03;19.33;;;;;;;;;;5032206;28;20190;-79
2021/01/09 10:20:51;;;;;;;28.98;18.73;;;;;;;;;;5023037;28;20186;-79
2021/01/09 10:23:17;;;;;;;25.02;17.48;;;;;;;;;;5029299;28;20174;-79
2021/01/09 10:25:43;;;;;;;28.63;19.17;;;;;;;;;;5015060;28;20221;-79
2021/01/09 10:28:09;;;;;;;29.90;19.17;;;;;;;;;;5018577;28;20213;-79
2021/01/09 10:30:36;;;;;;;31.00;19.48;;;;;;;;;;5020147;28;20186;-78
2021/01/09 10:33:02;;;;;;;28.52;18.20;;;;;;;;;;5015841;28;20222;-79
2021/01/09 10:35:28;;;;;;;34.17;20.38;;;;;;;;;;5032931;28;20201;-79
2021/01/09 10:37:54;;;;;;;28.08;16.48;;;;;;;;;;5029699;28;20316;-79
2021/01/09 10:40:20;;;;;;;28.90;19.63;;;;;;;;;;5019121;28;20201;-79
2021/01/09 10:42:46;;;;;;;29.42;17.58;;;;;;;;;;5023113;28;20327;-79
2021/01/09 10:45:13;;;;;;;30.73;19.80;;;;;;;;;;5030389;28;20186;-79
2021/01/09 10:47:39;;;;;;;29.77;17.55;;;;;;;;;;5025815;28;20337;-78
2021/01/09 10:50:06;;;;;;;32.13;19.58;;;;;;;;;;5030380;28;20197;-79
2021/01/09 10:52:31;;;;;;;27.17;18.05;;;;;;;;;;5018251;28;20245;-79
2021/01/09 10:54:57;;;;;;;28.17;16.83;;;;;;;;;;5016484;28;20202;-79
2021/01/09 10:57:23;;;;;;;26.60;17.83;;;;;;;;;;5032049;28;20469;-78
2021/01/09 10:59:49;;;;;;;30.20;18.60;;;;;;;;;;5022837;28;20226;-79
2021/01/09 11:02:15;;;;;;;26.17;17.85;;;;;;;;;;5015700;28;20422;-79
2021/01/09 11:04:42;;;;;;;27.15;17.50;;;;;;;;;;5014463;28;20201;-79
2021/01/09 11:07:08;;;;;;;24.15;16.10;;;;;;;;;;5021385;28;20202;-80
2021/01/09 11:09:34;;;;;;;28.08;16.55;;;;;;;;;;5019694;28;20254;-80
2021/01/09 11:12:00;;;;;;;27.52;16.48;;;;;;;;;;5018485;28;20270;-79
2021/01/09 11:14:26;;;;;;;28.88;16.70;;;;;;;;;;5022272;28;20192;-79
2021/01/09 11:16:56;;;;;;;23.65;16.00;;;;;;;;;;5020012;28;20186;-79
2021/01/09 11:19:22;;;;;;;30.23;17.50;;;;;;;;;;5028962;28;20230;-80
2021/01/09 11:21:48;;;;;;;28.30;16.85;;;;;;;;;;5031353;28;20193;-79
2021/01/09 11:24:14;;;;;;;27.25;16.58;;;;;;;;;;5026323;28;20187;-82
2021/01/09 11:26:40;;;;;;;25.75;15.05;;;;;;;;;;5025156;28;20211;-79
2021/01/09 11:29:06;;;;;;;25.35;16.55;;;;;;;;;;5029338;28;20210;-80
2021/01/09 11:31:32;;;;;;;21.70;15.18;;;;;;;;;;5018232;28;20547;-79
2021/01/09 11:33:58;;;;;;;29.58;17.63;;;;;;;;;;5020193;28;20186;-81
2021/01/09 11:36:24;;;;;;;24.77;16.35;;;;;;;;;;5019891;28;20191;-79
2021/01/09 11:38:50;;;;;;;20.10;13.70;;;;;;;;;;5026217;28;20210;-80
2021/01/09 11:41:16;;;;;;;22.02;13.95;;;;;;;;;;5038215;28;20190;-79
2021/01/09 11:43:42;;;;;;;25.27;14.82;;;;;;;;;;5017473;28;20202;-83
2021/01/09 11:46:09;;;;;;;24.83;15.30;;;;;;;;;;5018937;28;20206;-80
2021/01/09 11:48:35;;;;;;;24.60;14.40;;;;;;;;;;5032806;28;20179;-79
2021/01/09 11:51:01;;;;;;;20.00;13.10;;;;;;;;;;5054720;28;20243;-83
2021/01/09 11:53:27;;;;;;;20.30;13.00;;;;;;;;;;5035369;28;20252;-78
2021/01/09 11:55:53;;;;;;;18.65;12.27;;;;;;;;;;5020926;28;20190;-80
2021/01/09 11:58:19;;;;;;;25.17;14.90;;;;;;;;;;5020444;28;20183;-79
2021/01/09 12:00:46;;;;;;;21.55;13.15;;;;;;;;;;5037129;28;20232;-79
2021/01/09 12:03:12;;;;;;;24.27;13.45;;;;;;;;;;5032131;28;20194;-79
2021/01/09 12:05:39;;;;;;;19.60;12.02;;;;;;;;;;5022287;28;20210;-78
2021/01/09 12:08:05;;;;;;;19.38;12.25;;;;;;;;;;5033786;28;20253;-80
2021/01/09 12:10:32;;;;;;;18.20;11.80;;;;;;;;;;5037021;28;20186;-79
2021/01/09 12:12:58;;;;;;;15.07;10.40;;;;;;;;;;5033714;28;20293;-78
2021/01/09 12:15:27;;;;;;;17.80;12.55;;;;;;;;;;5035915;28;20186;-82
2021/01/09 12:17:53;;;;;;;22.35;13.63;;;;;;;;;;5025170;28;20245;-82
2021/01/09 12:20:19;;;;;;;19.05;13.65;;;;;;;;;;5022879;28;20179;-79
2021/01/09 12:22:45;;;;;;;17.15;11.00;;;;;;;;;;5021558;28;20197;-82
2021/01/09 12:25:11;;;;;;;21.83;12.02;;;;;;;;;;5018856;28;20207;-79
2021/01/09 12:27:37;;;;;;;18.63;11.57;;;;;;;;;;5021815;28;20183;-79
2021/01/09 12:30:04;;;;;;;16.60;12.30;;;;;;;;;;5017603;28;20234;-80
2021/01/09 12:32:30;;;;;;;22.33;13.02;;;;;;;;;;5034689;28;20747;-80
2021/01/09 12:34:56;;;;;;;20.92;13.45;;;;;;;;;;5016934;28;20644;-80
2021/01/09 12:37:22;;;;;;;20.05;13.85;;;;;;;;;;5019793;28;20693;-78
2021/01/09 12:39:48;;;;;;;25.73;15.27;;;;;;;;;;5019904;28;20210;-81
2021/01/09 12:42:14;;;;;;;22.00;13.88;;;;;;;;;;5024642;28;20183;-78
2021/01/09 12:44:40;;;;;;;25.70;16.58;;;;;;;;;;5019560;28;20226;-80
2021/01/09 12:47:08;;;;;;;24.17;13.63;;;;;;;;;;5031793;28;20248;-83
2021/01/09 12:49:34;;;;;;;18.58;13.02;;;;;;;;;;5019539;28;20187;-79
2021/01/09 12:52:00;;;;;;;19.87;13.97;;;;;;;;;;5019336;28;20190;-80
2021/01/09 12:54:26;;;;;;;19.85;11.88;;;;;;;;;;5033469;28;20434;-81
2021/01/09 12:56:52;;;;;;;16.60;11.27;;;;;;;;;;5024265;28;20179;-81
2021/01/09 12:59:20;;;;;;;25.65;13.52;;;;;;;;;;5018450;28;20182;-80
2021/01/09 13:01:47;;;;;;;21.48;14.70;;;;;;;;;;5018628;28;20186;-79
2021/01/09 13:04:13;;;;;;;18.75;11.73;;;;;;;;;;5035191;28;20190;-80
2021/01/09 13:06:46;;;;;;;21.63;13.10;;;;;;;;;;5022763;28;20209;-80
2021/01/09 13:09:13;;;;;;;15.98;10.25;;;;;;;;;;5014400;28;20600;-82
2021/01/09 13:11:40;;;;;;;14.52;8.98;;;;;;;;;;5035426;28;20179;-79
2021/01/09 13:14:06;;;;;;;14.52;9.70;;;;;;;;;;5037727;28;20175;-80
2021/01/09 13:16:32;;;;;;;16.95;10.30;;;;;;;;;;5020539;28;20190;-79
2021/01/09 13:18:58;;;;;;;9.48;7.72;;;;;;;;;;5018615;28;20302;-79
2021/01/09 13:21:24;;;;;;;11.68;8.23;;;;;;;;;;5032174;28;20190;-79
2021/01/09 13:23:50;;;;;;;12.18;7.95;;;;;;;;;;5037611;28;20183;-81
2021/01/09 13:26:16;;;;;;;11.40;8.47;;;;;;;;;;5018578;28;20205;-78
2021/01/09 13:28:44;;;;;;;10.70;8.00;;;;;;;;;;5019148;28;20480;-82
2021/01/09 13:31:10;;;;;;;13.95;7.65;;;;;;;;;;5020770;28;20246;-78
2021/01/09 13:33:36;;;;;;;10.90;7.63;;;;;;;;;;5019194;28;20175;-79
2021/01/09 13:36:03;;;;;;;16.13;8.77;;;;;;;;;;5019740;28;20198;-82
2021/01/09 13:38:29;;;;;;;13.88;7.63;;;;;;;;;;5037171;28;20193;-79
2021/01/09 13:40:55;;;;;;;13.75;8.60;;;;;;;;;;5030925;28;20178;-80
2021/01/09 13:43:22;;;;;;;10.98;8.00;;;;;;;;;;5020659;28;20260;-82
2021/01/09 13:45:49;;;;;;;10.55;7.38;;;;;;;;;;5018680;28;20205;-83
2021/01/09 13:48:15;;;;;;;12.88;7.93;;;;;;;;;;5020113;28;20195;-80
2021/01/09 13:50:41;;;;;;;12.65;8.88;;;;;;;;;;5025416;28;20175;-81
2021/01/09 13:53:07;;;;;;;20.45;8.65;;;;;;;;;;5036171;28;20644;-82
2021/01/09 13:55:33;;;;;;;12.90;8.55;;;;;;;;;;5014038;28;20266;-81
2021/01/09 13:58:00;;;;;;;11.13;7.38;;;;;;;;;;5036132;28;20190;-84
2021/01/09 14:00:26;;;;;;;13.13;8.57;;;;;;;;;;5029721;28;20333;-82
2021/01/09 14:02:52;;;;;;;12.18;7.35;;;;;;;;;;5018714;28;20187;-81
2021/01/09 14:05:18;;;;;;;15.20;8.13;;;;;;;;;;5036681;28;20245;-82
2021/01/09 14:07:44;;;;;;;12.02;7.85;;;;;;;;;;5018003;28;20804;-83
2021/01/09 14:10:10;;;;;;;12.00;8.20;;;;;;;;;;5035977;28;20189;-83
2021/01/09 14:12:37;;;;;;;14.90;9.48;;;;;;;;;;5017238;28;20185;-82
2021/01/09 14:15:06;;;;;;;12.73;8.73;;;;;;;;;;5019533;28;20191;-81
2021/01/09 14:17:33;;;;;;;12.93;8.00;;;;;;;;;;5035607;28;20242;-82